createdAt,value
2018-07-06T00:01:58.236Z,91.06
2018-07-06T00:04:44.643Z,90.35
2018-07-06T00:07:31.045Z,90.33
2018-07-06T00:10:17.259Z,91.19
2018-07-06T00:13:03.622Z,89.86
2018-07-06T00:15:50.111Z,90.00
2018-07-06T00:18:36.493Z,89.78
2018-07-06T00:21:22.672Z,90.12
2018-07-06T00:24:09.062Z,90.00
2018-07-06T00:26:55.549Z,90.68
2018-07-06T00:29:41.865Z,89.87
2018-07-06T00:32:28.194Z,90.33
2018-07-06T00:35:14.538Z,89.71
2018-07-06T00:38:00.856Z,90.47
2018-07-06T00:40:47.273Z,89.80
2018-07-06T00:43:33.573Z,89.92
2018-07-06T00:46:19.897Z,90.73
2018-07-06T00:49:00.396Z,90.80
2018-07-06T00:51:46.829Z,90.10
2018-07-06T00:54:33.052Z,90.35
2018-07-06T00:57:19.523Z,90.25
2018-07-06T01:00:05.740Z,89.57
2018-07-06T01:02:52.239Z,89.64
2018-07-06T01:05:38.627Z,89.82
2018-07-06T01:08:26.708Z,89.93
2018-07-06T01:11:07.181Z,90.05
2018-07-06T01:13:47.545Z,89.83
2018-07-06T01:16:33.959Z,90.51
2018-07-06T01:19:20.269Z,89.79
2018-07-06T01:22:06.745Z,89.54
2018-07-06T01:24:46.986Z,89.38
2018-07-06T01:27:27.356Z,90.31
2018-07-06T01:30:13.971Z,90.34
2018-07-06T01:33:00.421Z,89.98
2018-07-06T01:35:46.720Z,90.07
2018-07-06T01:38:32.983Z,90.07
2018-07-06T01:41:19.353Z,90.38
2018-07-06T01:43:59.642Z,90.11
2018-07-06T01:46:46.146Z,90.44
2018-07-06T01:49:32.402Z,90.78
2018-07-06T01:52:12.880Z,90.15
2018-07-06T01:54:59.261Z,89.53
2018-07-06T01:57:39.466Z,89.95
2018-07-06T02:00:26.123Z,90.27
2018-07-06T02:03:12.409Z,90.20
2018-07-06T02:05:58.628Z,89.74
2018-07-06T02:08:45.064Z,90.97
2018-07-06T02:11:31.308Z,90.49
2018-07-06T02:14:17.593Z,90.37
2018-07-06T02:17:03.796Z,90.27
2018-07-06T02:19:50.165Z,89.90
2018-07-06T02:22:36.445Z,90.20
2018-07-06T02:25:22.700Z,90.43
2018-07-06T02:28:09.041Z,90.87
2018-07-06T02:30:55.552Z,90.29
2018-07-06T02:33:41.809Z,90.76
2018-07-06T02:36:22.127Z,91.08
2018-07-06T02:39:08.539Z,90.26
2018-07-06T02:41:54.912Z,90.90
2018-07-06T02:44:41.509Z,90.40
2018-07-06T02:47:28.014Z,90.21
2018-07-06T02:50:14.395Z,90.56
2018-07-06T02:53:00.835Z,91.21
2018-07-06T02:55:47.042Z,90.37
2018-07-06T02:58:33.406Z,90.89
2018-07-06T03:01:19.766Z,90.44
2018-07-06T03:04:06.011Z,90.70
2018-07-06T03:06:52.253Z,90.70
2018-07-06T03:09:38.740Z,90.87
2018-07-06T03:12:26.203Z,91.15
2018-07-06T03:15:12.549Z,90.72
2018-07-06T03:17:59.019Z,91.01
2018-07-06T03:20:45.384Z,90.89
2018-07-06T03:23:31.772Z,90.99
2018-07-06T03:26:18.151Z,90.28
2018-07-06T03:29:04.332Z,90.70
2018-07-06T03:31:50.677Z,90.76
2018-07-06T03:34:37.032Z,90.60
2018-07-06T03:37:23.340Z,90.84
2018-07-06T03:40:09.797Z,91.17
2018-07-06T03:42:50.029Z,90.38
2018-07-06T03:45:36.200Z,91.20
2018-07-06T03:48:25.744Z,90.88
2018-07-06T03:51:12.292Z,90.87
2018-07-06T03:53:58.472Z,91.33
2018-07-06T03:56:44.648Z,91.71
2018-07-06T03:59:31.032Z,91.27
2018-07-06T04:02:17.406Z,91.09
2018-07-06T04:04:57.859Z,91.67
2018-07-06T04:07:44.285Z,91.30
2018-07-06T04:10:30.656Z,91.36
2018-07-06T04:13:16.907Z,91.88
2018-07-06T04:16:03.368Z,90.92
2018-07-06T04:18:49.776Z,91.20
2018-07-06T04:21:36.183Z,91.22
2018-07-06T04:24:22.425Z,90.80
2018-07-06T04:27:08.708Z,91.34
2018-07-06T04:29:54.988Z,90.88
2018-07-06T04:32:41.407Z,91.09
2018-07-06T04:35:27.708Z,91.09
2018-07-06T04:38:14.184Z,90.94
2018-07-06T04:41:00.723Z,91.74
2018-07-06T04:43:46.863Z,91.46
2018-07-06T04:46:27.167Z,91.53
2018-07-06T04:49:13.456Z,91.70
2018-07-06T04:51:59.752Z,91.54
2018-07-06T04:54:46.048Z,91.50
2018-07-06T04:57:32.546Z,90.72
2018-07-06T05:00:18.914Z,91.06
2018-07-06T05:02:59.284Z,91.63
2018-07-06T05:05:39.783Z,90.92
2018-07-06T05:08:26.212Z,90.64
2018-07-06T05:11:12.468Z,90.17
2018-07-06T05:13:58.889Z,90.37
2018-07-06T05:16:45.315Z,89.81
2018-07-06T05:19:31.528Z,90.25
2018-07-06T05:22:17.957Z,90.79
2018-07-06T05:25:04.287Z,90.87
2018-07-06T05:27:50.561Z,90.14
2018-07-06T05:30:37.660Z,90.64
2018-07-06T05:33:24.173Z,91.58
2018-07-06T05:36:10.556Z,90.76
2018-07-06T05:38:50.978Z,90.77
2018-07-06T05:41:37.399Z,90.96
2018-07-06T05:44:23.722Z,90.77
2018-07-06T05:47:03.955Z,89.93
2018-07-06T05:49:50.528Z,90.52
2018-07-06T05:52:36.994Z,90.64
2018-07-06T05:55:23.368Z,90.57
2018-07-06T05:58:09.726Z,90.64
2018-07-06T06:00:56.364Z,90.24
2018-07-06T06:03:42.715Z,90.70
2018-07-06T06:06:29.140Z,90.92
2018-07-06T06:08:56.923Z,91.26
2018-07-06T06:11:26.288Z,89.94
2018-07-06T06:13:55.643Z,89.16
2018-07-06T06:16:24.784Z,89.61
2018-07-06T06:18:54.176Z,89.26
2018-07-06T06:21:23.255Z,90.04
2018-07-06T06:23:52.593Z,90.53
2018-07-06T06:28:58.731Z,89.73
2018-07-06T06:31:28.958Z,89.80
2018-07-06T06:34:00.568Z,89.09
2018-07-06T06:36:30.448Z,88.40
2018-07-06T06:38:59.788Z,89.21
2018-07-06T06:41:29.156Z,89.29
2018-07-06T06:43:58.483Z,88.87
2018-07-06T06:46:27.829Z,87.92
2018-07-06T06:48:57.180Z,88.62
2018-07-06T06:51:26.508Z,89.71
2018-07-06T06:53:55.595Z,89.01
2018-07-06T06:56:24.906Z,89.34
2018-07-06T06:58:54.103Z,88.36
2018-07-06T07:01:23.417Z,88.46
2018-07-06T07:03:52.795Z,89.49
2018-07-06T07:06:22.120Z,89.64
2018-07-06T07:08:51.456Z,89.58
2018-07-06T07:11:20.772Z,88.96
2018-07-06T07:13:50.246Z,89.16
2018-07-06T07:16:19.507Z,89.95
2018-07-06T07:18:48.836Z,87.44
2018-07-06T07:21:18.195Z,88.31
2018-07-06T07:23:47.618Z,88.53
2018-07-06T07:26:16.868Z,87.80
2018-07-06T07:28:46.192Z,87.07
2018-07-06T07:31:15.516Z,88.15
2018-07-06T07:33:44.594Z,87.97
2018-07-06T07:36:13.964Z,86.53
2018-07-06T07:38:43.326Z,86.49
2018-07-06T07:41:12.636Z,87.81
2018-07-06T07:43:42.004Z,87.45
2018-07-06T07:46:11.101Z,87.65
2018-07-06T07:48:40.427Z,88.08
2018-07-06T07:52:14.605Z,87.64
2018-07-06T07:54:48.455Z,86.59
2018-07-06T07:57:17.805Z,86.83
2018-07-06T07:59:47.648Z,87.25
2018-07-06T08:02:16.777Z,86.52
2018-07-06T08:04:46.564Z,86.39
2018-07-06T08:07:15.908Z,86.74
2018-07-06T08:09:45.368Z,85.60
2018-07-06T08:12:14.727Z,85.52
2018-07-06T08:14:44.076Z,86.68
2018-07-06T08:17:13.408Z,85.47
2018-07-06T08:19:42.752Z,84.64
2018-07-06T08:22:12.081Z,84.50
2018-07-06T08:24:41.438Z,83.17
2018-07-06T08:27:10.777Z,84.49
2018-07-06T08:29:39.883Z,82.01
2018-07-06T08:32:09.233Z,81.73
2018-07-06T08:34:55.468Z,81.52
2018-07-06T08:37:39.146Z,82.49
2018-07-06T08:40:08.516Z,81.87
2018-07-06T08:42:39.142Z,81.68
2018-07-06T08:45:08.880Z,80.79
2018-07-06T08:47:38.296Z,81.49
2018-07-06T08:50:09.199Z,82.54
2018-07-06T08:52:39.517Z,81.95
2018-07-06T08:55:08.971Z,81.13
2018-07-06T08:57:39.244Z,82.21
2018-07-06T09:00:10.244Z,82.20
2018-07-06T09:02:39.561Z,81.18
2018-07-06T09:05:09.312Z,77.78
2018-07-06T09:07:38.688Z,79.01
2018-07-06T09:10:09.079Z,78.81
2018-07-06T09:12:38.776Z,79.07
2018-07-06T09:15:08.649Z,79.48
2018-07-06T09:17:38.031Z,79.42
2018-07-06T09:20:08.783Z,79.53
2018-07-06T09:22:37.916Z,80.03
2018-07-06T09:25:07.928Z,79.32
2018-07-06T09:27:37.255Z,80.23
2018-07-06T09:30:06.575Z,80.25
2018-07-06T09:32:35.991Z,87.80
2018-07-06T09:35:05.400Z,79.14
2018-07-06T09:37:34.745Z,77.21
2018-07-06T09:40:04.080Z,77.23
2018-07-06T09:42:33.167Z,79.31
2018-07-06T09:45:02.269Z,77.40
2018-07-06T09:47:31.364Z,77.74
2018-07-06T09:50:00.447Z,76.06
2018-07-06T09:52:29.791Z,76.21
2018-07-06T09:54:59.155Z,76.19
2018-07-06T09:57:28.273Z,75.28
2018-07-06T09:59:57.646Z,76.47
2018-07-06T10:02:27.003Z,74.28
2018-07-06T10:04:56.364Z,76.49
2018-07-06T10:07:25.484Z,76.11
2018-07-06T10:09:54.904Z,74.34
2018-07-06T10:12:23.974Z,74.73
2018-07-06T10:14:53.336Z,76.00
2018-07-06T10:17:22.696Z,73.72
2018-07-06T10:19:52.128Z,72.56
2018-07-06T10:22:21.477Z,72.64
2018-07-06T10:24:50.832Z,72.80
2018-07-06T10:27:20.287Z,72.22
2018-07-06T10:30:01.371Z,71.74
2018-07-06T10:32:31.076Z,71.77
2018-07-06T10:35:00.978Z,68.37
2018-07-06T10:37:30.795Z,67.87
2018-07-06T10:40:00.204Z,68.03
2018-07-06T10:42:29.278Z,68.35
2018-07-06T10:44:58.384Z,67.15
2018-07-06T10:47:27.744Z,69.63
2018-07-06T10:49:57.089Z,65.89
2018-07-06T10:52:26.472Z,66.69
2018-07-06T10:54:55.799Z,68.86
2018-07-06T10:57:25.115Z,68.80
2018-07-06T10:59:54.460Z,70.50
2018-07-06T11:02:23.792Z,70.79
2018-07-06T11:04:53.183Z,68.74
2018-07-06T11:07:22.466Z,69.03
2018-07-06T11:09:51.780Z,68.01
2018-07-06T11:12:20.873Z,68.40
2018-07-06T11:14:49.963Z,68.44
2018-07-06T11:17:19.043Z,69.42
2018-07-06T11:19:48.368Z,67.03
2018-07-06T11:22:17.696Z,67.92
2018-07-06T11:24:47.020Z,67.47
2018-07-06T11:27:16.348Z,64.24
2018-07-06T11:29:45.685Z,64.66
2018-07-06T11:32:15.076Z,64.71
2018-07-06T11:34:44.355Z,65.24
2018-07-06T11:37:13.444Z,63.79
2018-07-06T11:39:42.772Z,61.37
2018-07-06T11:42:12.097Z,57.61
2018-07-06T11:44:41.408Z,56.80
2018-07-06T11:47:10.868Z,55.97
2018-07-06T11:49:39.935Z,58.80
2018-07-06T11:52:09.307Z,58.18
2018-07-06T11:54:38.632Z,57.51
2018-07-06T11:57:08.064Z,58.54
2018-07-06T11:59:37.411Z,58.88
2018-07-06T12:02:06.744Z,54.85
2018-07-06T12:04:36.122Z,53.07
2018-07-06T12:07:05.392Z,50.80
2018-07-06T12:09:34.729Z,50.33
2018-07-06T12:12:04.062Z,48.97
2018-07-06T12:14:33.164Z,50.42
2018-07-06T12:17:02.271Z,48.46
2018-07-06T12:19:31.584Z,50.27
2018-07-06T12:22:00.909Z,48.65
2018-07-06T12:24:30.247Z,46.75
2018-07-06T12:26:59.591Z,45.61
2018-07-06T12:29:28.916Z,44.36
2018-07-06T12:31:58.233Z,44.49
2018-07-06T12:34:27.563Z,44.33
2018-07-06T12:36:57.302Z,43.99
2018-07-06T12:39:26.604Z,44.49
2018-07-06T12:41:55.932Z,43.68
2018-07-06T12:44:25.252Z,44.62
2018-07-06T12:46:54.576Z,44.27
2018-07-06T12:49:23.899Z,46.31
2018-07-06T12:51:53.236Z,46.06
2018-07-06T12:54:22.556Z,44.48
2018-07-06T12:56:51.881Z,46.40
2018-07-06T12:59:21.199Z,44.58
2018-07-06T13:01:50.532Z,46.17
2018-07-06T13:04:19.870Z,42.60
2018-07-06T13:06:49.219Z,45.36
2018-07-06T13:09:18.536Z,41.73
2018-07-06T13:11:47.852Z,43.33
2018-07-06T13:14:17.180Z,40.35
2018-07-06T13:16:46.508Z,42.89
2018-07-06T13:19:15.820Z,40.71
2018-07-06T13:21:45.500Z,40.08
2018-07-06T13:24:14.900Z,40.80
2018-07-06T13:26:44.232Z,40.68
2018-07-06T13:29:13.539Z,40.67
2018-07-06T13:31:42.914Z,40.74
2018-07-06T13:34:12.256Z,40.66
2018-07-06T13:36:41.574Z,43.05
2018-07-06T13:39:10.962Z,42.66
2018-07-06T13:41:40.484Z,43.11
2018-07-06T13:44:09.744Z,45.00
2018-07-06T13:46:39.079Z,41.65
2018-07-06T13:49:08.381Z,42.46
2018-07-06T13:51:37.705Z,41.86
2018-07-06T13:54:07.410Z,43.23
2018-07-06T13:56:36.760Z,39.03
2018-07-06T13:59:06.199Z,42.77
2018-07-06T14:01:35.503Z,40.22
2018-07-06T14:04:04.902Z,37.71
2018-07-06T14:06:34.004Z,39.77
2018-07-06T14:09:03.171Z,39.72
2018-07-06T14:11:32.550Z,39.28
2018-07-06T14:14:02.275Z,38.61
2018-07-06T14:16:31.616Z,38.24
2018-07-06T14:19:00.967Z,37.33
2018-07-06T14:21:30.315Z,35.87
2018-07-06T14:23:59.419Z,34.29
2018-07-06T14:26:28.782Z,35.68
2018-07-06T14:28:58.152Z,36.81
2018-07-06T14:31:27.467Z,37.92
2018-07-06T14:33:56.807Z,35.27
2018-07-06T14:36:25.903Z,35.41
2018-07-06T14:38:55.067Z,35.12
2018-07-06T14:41:24.410Z,35.96
2018-07-06T14:43:53.502Z,33.32
2018-07-06T14:46:22.839Z,35.36
2018-07-06T14:48:52.199Z,36.41
2018-07-06T14:51:21.292Z,37.73
2018-07-06T14:53:50.366Z,38.29
2018-07-06T14:56:19.660Z,38.49
2018-07-06T14:58:49.028Z,39.52
2018-07-06T15:01:18.348Z,39.03
2018-07-06T15:03:47.673Z,39.47
2018-07-06T15:06:17.043Z,40.97
2018-07-06T15:08:46.747Z,41.87
2018-07-06T15:11:16.016Z,42.17
2018-07-06T15:13:45.323Z,42.92
2018-07-06T15:16:14.664Z,42.81
2018-07-06T15:18:43.999Z,42.92
2018-07-06T15:21:13.317Z,44.12
2018-07-06T15:23:42.646Z,44.17
2018-07-06T15:26:11.956Z,44.24
2018-07-06T15:28:41.277Z,44.59
2018-07-06T15:31:10.592Z,45.57
2018-07-06T15:33:39.923Z,45.84
2018-07-06T15:36:09.232Z,45.46
2018-07-06T15:38:38.568Z,45.50
2018-07-06T15:41:07.907Z,45.96
2018-07-06T15:43:37.007Z,42.85
2018-07-06T15:46:06.336Z,41.75
2018-07-06T15:48:35.683Z,43.68
2018-07-06T15:51:05.018Z,43.40
2018-07-06T15:53:34.343Z,40.82
2018-07-06T15:56:03.795Z,42.36
2018-07-06T15:58:33.145Z,42.89
2018-07-06T16:01:02.484Z,40.07
2018-07-06T16:03:31.801Z,39.41
2018-07-06T16:06:01.144Z,38.79
2018-07-06T16:08:30.460Z,40.73
2018-07-06T16:10:59.808Z,39.02
2018-07-06T16:13:29.019Z,40.37
2018-07-06T16:15:58.443Z,40.23
2018-07-06T16:18:27.764Z,41.61
2018-07-06T16:20:57.116Z,41.45
2018-07-06T16:23:26.203Z,42.25
2018-07-06T16:25:55.305Z,42.24
2018-07-06T16:28:24.640Z,43.19
2018-07-06T16:30:53.958Z,43.26
2018-07-06T16:33:23.291Z,44.48
2018-07-06T16:35:52.390Z,44.17
2018-07-06T16:38:21.780Z,44.24
2018-07-06T16:40:51.139Z,44.13
2018-07-06T16:43:20.447Z,45.32
2018-07-06T16:45:49.772Z,45.18
2018-07-06T16:48:19.088Z,46.20
2018-07-06T16:50:48.436Z,47.38
2018-07-06T16:53:17.760Z,46.61
2018-07-06T16:55:47.101Z,47.04
2018-07-06T16:58:16.264Z,47.06
2018-07-06T17:00:45.684Z,47.31
2018-07-06T17:03:15.184Z,47.81
2018-07-06T17:05:44.503Z,47.40
2018-07-06T17:08:13.568Z,47.72
2018-07-06T17:10:42.924Z,48.02
2018-07-06T17:13:12.264Z,48.02
2018-07-06T17:15:41.624Z,47.98
2018-07-06T17:18:10.939Z,49.27
2018-07-06T17:20:40.256Z,50.16
2018-07-06T17:23:37.603Z,51.32
2018-07-06T17:26:06.952Z,51.88
2018-07-06T17:29:11.072Z,52.17
2018-07-06T17:31:40.390Z,54.40
2018-07-06T17:34:09.692Z,54.70
2018-07-06T17:36:39.025Z,54.99
2018-07-06T17:39:08.356Z,55.67
2018-07-06T17:41:37.798Z,55.23
2018-07-06T17:44:07.131Z,54.80
2018-07-06T17:46:36.464Z,54.76
2018-07-06T17:49:05.824Z,54.87
2018-07-06T17:51:35.143Z,54.10
2018-07-06T17:54:04.508Z,53.64
2018-07-06T17:56:33.873Z,53.19
2018-07-06T17:59:03.323Z,53.75
2018-07-06T18:01:32.681Z,53.47
2018-07-06T18:04:02.036Z,53.88
2018-07-06T18:06:31.391Z,53.99
2018-07-06T18:09:00.745Z,53.79
2018-07-06T18:11:30.101Z,53.32
2018-07-06T18:13:59.468Z,53.07
2018-07-06T18:16:28.825Z,53.47
2018-07-06T18:18:58.227Z,53.06
2018-07-06T18:21:27.604Z,52.78
2018-07-06T18:23:56.971Z,52.65
2018-07-06T18:26:26.347Z,53.91
2018-07-06T18:28:55.701Z,53.91
2018-07-06T18:31:24.842Z,53.14
2018-07-06T18:33:54.199Z,54.03
2018-07-06T18:36:23.309Z,53.58
2018-07-06T18:38:52.666Z,53.63
2018-07-06T18:41:22.063Z,53.85
2018-07-06T18:43:51.541Z,54.20
2018-07-06T18:46:20.932Z,54.56
2018-07-06T18:48:50.311Z,54.62
2018-07-06T18:51:19.404Z,54.39
2018-07-06T18:53:48.527Z,54.07
2018-07-06T18:56:17.876Z,54.74
2018-07-06T18:58:47.220Z,55.19
2018-07-06T19:01:16.564Z,55.27
2018-07-06T19:03:45.960Z,55.62
2018-07-06T19:06:15.316Z,56.15
2018-07-06T19:08:44.725Z,57.40
2018-07-06T19:11:14.220Z,58.08
2018-07-06T19:13:43.583Z,59.30
2018-07-06T19:16:12.944Z,59.72
2018-07-06T19:18:42.420Z,60.37
2018-07-06T19:21:11.780Z,61.20
2018-07-06T19:23:41.143Z,61.42
2018-07-06T19:26:10.491Z,61.96
2018-07-06T19:28:39.848Z,61.65
2018-07-06T19:31:09.212Z,61.75
2018-07-06T19:33:38.577Z,62.22
2018-07-06T19:36:08.910Z,62.88
2018-07-06T19:38:38.269Z,63.99
2018-07-06T19:41:07.640Z,64.00
2018-07-06T19:43:37.009Z,65.08
2018-07-06T19:46:06.360Z,65.63
2018-07-06T19:48:35.762Z,65.42
2018-07-06T19:51:05.073Z,65.61
2018-07-06T19:53:34.460Z,66.32
2018-07-06T19:56:03.553Z,66.60
2018-07-06T19:58:32.654Z,66.53
2018-07-06T20:01:01.967Z,65.78
2018-07-06T20:03:31.300Z,66.34
2018-07-06T20:06:00.636Z,66.63
2018-07-06T20:08:29.971Z,67.03
2018-07-06T20:10:59.288Z,67.72
2018-07-06T20:13:28.616Z,67.79
2018-07-06T20:15:57.931Z,68.05
2018-07-06T20:18:27.284Z,68.91
2018-07-06T20:20:56.623Z,69.46
2018-07-06T20:23:25.948Z,69.46
2018-07-06T20:25:55.269Z,69.24
2018-07-06T20:28:24.604Z,68.73
2018-07-06T20:30:53.928Z,69.34
2018-07-06T20:33:23.259Z,70.05
2018-07-06T20:35:52.344Z,71.07
2018-07-06T20:38:21.439Z,71.75
2018-07-06T20:40:50.519Z,72.39
2018-07-06T20:43:19.878Z,72.86
2018-07-06T20:45:49.176Z,73.42
2018-07-06T20:48:18.503Z,73.26
2018-07-06T20:50:47.839Z,73.67
2018-07-06T20:53:16.931Z,74.27
2018-07-06T20:55:46.298Z,73.91
2018-07-06T20:58:15.649Z,74.20
2018-07-06T21:00:44.981Z,73.78
2018-07-06T21:03:14.331Z,74.47
2018-07-06T21:05:43.706Z,74.96
2018-07-06T21:08:13.173Z,75.10
2018-07-06T21:10:42.285Z,75.24
2018-07-06T21:13:11.355Z,75.62
2018-07-06T21:15:40.720Z,75.84
2018-07-06T21:18:10.079Z,75.42
2018-07-06T21:20:39.448Z,75.21
2018-07-06T21:23:08.539Z,76.25
2018-07-06T21:25:37.645Z,75.98
2018-07-06T21:28:07.052Z,76.59
2018-07-06T21:30:36.421Z,76.15
2018-07-06T21:33:06.005Z,76.57
2018-07-06T21:35:35.429Z,77.24
2018-07-06T21:38:04.801Z,76.68
2018-07-06T21:40:34.167Z,77.37
2018-07-06T21:43:03.548Z,76.71
2018-07-06T21:45:32.648Z,77.12
2018-07-06T21:48:02.019Z,77.33
2018-07-06T21:50:31.380Z,76.75
2018-07-06T21:53:00.744Z,77.38
2018-07-06T21:55:29.900Z,78.10
2018-07-06T21:57:59.228Z,78.00
2018-07-06T22:00:40.687Z,77.60
2018-07-06T22:03:11.812Z,77.76
2018-07-06T22:05:42.114Z,78.21
2018-07-06T22:08:11.477Z,78.02
2018-07-06T22:10:40.839Z,77.60
2018-07-06T22:13:10.191Z,78.58
2018-07-06T22:15:44.246Z,77.85
2018-07-06T22:18:15.260Z,77.55
2018-07-06T22:20:46.416Z,77.37
2018-07-06T22:23:16.209Z,77.70
2018-07-06T22:25:45.307Z,77.62
2018-07-06T22:28:14.655Z,78.16
2018-07-06T22:30:43.997Z,77.32
2018-07-06T22:33:13.110Z,77.96
2018-07-06T22:35:42.472Z,78.31
2018-07-06T22:38:11.808Z,78.21
2018-07-06T22:40:41.162Z,77.79
2018-07-06T22:43:10.520Z,78.13
2018-07-06T22:45:39.888Z,78.48
2018-07-06T22:48:08.996Z,78.57
2018-07-06T22:50:38.344Z,78.76
2018-07-06T22:53:07.715Z,78.43
2018-07-06T22:55:37.056Z,78.79
2018-07-06T22:58:06.595Z,79.00
2018-07-06T23:00:35.928Z,78.71
2018-07-06T23:03:06.042Z,78.91
2018-07-06T23:05:35.427Z,79.39
2018-07-06T23:08:04.717Z,79.16
2018-07-06T23:10:33.787Z,78.84
2018-07-06T23:13:03.120Z,78.48
2018-07-06T23:15:32.194Z,77.89
2018-07-06T23:18:01.569Z,78.21
2018-07-06T23:20:30.883Z,79.20
2018-07-06T23:23:07.717Z,79.34
2018-07-06T23:25:38.324Z,79.55
2018-07-06T23:28:08.687Z,79.56
2018-07-06T23:30:38.015Z,79.86
2018-07-06T23:33:08.036Z,79.04
2018-07-06T23:35:37.371Z,79.30
2018-07-06T23:38:06.746Z,79.68
2018-07-06T23:40:36.076Z,80.19
2018-07-06T23:43:05.403Z,81.00
2018-07-06T23:45:34.721Z,79.68
2018-07-06T23:48:04.072Z,79.71
2018-07-06T23:50:33.142Z,79.58
2018-07-06T23:53:02.485Z,78.75
2018-07-06T23:55:31.817Z,78.82
2018-07-06T23:58:01.151Z,78.77
